sensor_id;sensor_type;location;lat;lon;timestamp;temperature;humidity
7588;DHT22;3835;48.850;8.938;2023-06-10T00:00:47;15.80;99.90
7588;DHT22;3835;48.850;8.938;2023-06-10T00:03:15;15.70;99.90
7588;DHT22;3835;48.850;8.938;2023-06-10T00:05:43;15.60;99.90
7588;DHT22;3835;48.850;8.938;2023-06-10T00:08:10;15.50;99.90
7588;DHT22;3835;48.850;8.938;2023-06-10T00:10:37;15.50;99.90
7588;DHT22;3835;48.850;8.938;2023-06-10T00:13:06;15.40;99.90
7588;DHT22;3835;48.850;8.938;2023-06-10T00:15:34;15.30;99.90
7588;DHT22;3835;48.850;8.938;2023-06-10T00:18:01;15.30;99.90
7588;DHT22;3835;48.850;8.938;2023-06-10T00:20:30;15.20;99.90
7588;DHT22;3835;48.850;8.938;2023-06-10T00:22:58;15.10;99.90
7588;DHT22;3835;48.850;8.938;2023-06-10T00:25:26;15.00;99.90
7588;DHT22;3835;48.850;8.938;2023-06-10T00:27:53;15.00;99.90
7588;DHT22;3835;48.850;8.938;2023-06-10T00:30:20;15.00;99.90
7588;DHT22;3835;48.850;8.938;2023-06-10T00:32:47;14.90;99.90
7588;DHT22;3835;48.850;8.938;2023-06-10T00:35:14;14.80;99.90
7588;DHT22;3835;48.850;8.938;2023-06-10T00:37:42;14.80;99.90
7588;DHT22;3835;48.850;8.938;2023-06-10T00:40:09;14.70;99.90
7588;DHT22;3835;48.850;8.938;2023-06-10T00:42:36;14.70;99.90
7588;DHT22;3835;48.850;8.938;2023-06-10T00:45:04;14.70;99.90
7588;DHT22;3835;48.850;8.938;2023-06-10T00:47:31;14.70;99.90
7588;DHT22;3835;48.850;8.938;2023-06-10T00:49:58;14.80;99.90
7588;DHT22;3835;48.850;8.938;2023-06-10T00:52:28;14.80;99.90
7588;DHT22;3835;48.850;8.938;2023-06-10T00:54:56;14.80;99.90
7588;DHT22;3835;48.850;8.938;2023-06-10T00:57:24;14.90;99.90
7588;DHT22;3835;48.850;8.938;2023-06-10T00:59:52;14.90;99.90
7588;DHT22;3835;48.850;8.938;2023-06-10T01:02:18;14.80;99.90
7588;DHT22;3835;48.850;8.938;2023-06-10T01:04:45;14.70;99.90
7588;DHT22;3835;48.850;8.938;2023-06-10T01:07:20;14.60;99.90
7588;DHT22;3835;48.850;8.938;2023-06-10T01:09:55;14.60;99.90
7588;DHT22;3835;48.850;8.938;2023-06-10T01:12:30;14.60;99.90
7588;DHT22;3835;48.850;8.938;2023-06-10T01:14:59;14.60;99.90
7588;DHT22;3835;48.850;8.938;2023-06-10T01:17:27;14.60;99.90
7588;DHT22;3835;48.850;8.938;2023-06-10T01:19:56;14.50;99.90
7588;DHT22;3835;48.850;8.938;2023-06-10T01:22:25;14.50;99.90
7588;DHT22;3835;48.850;8.938;2023-06-10T01:24:54;14.40;99.90
7588;DHT22;3835;48.850;8.938;2023-06-10T01:27:28;14.40;99.90
7588;DHT22;3835;48.850;8.938;2023-06-10T01:30:00;14.40;99.90
7588;DHT22;3835;48.850;8.938;2023-06-10T01:32:32;14.40;99.90
7588;DHT22;3835;48.850;8.938;2023-06-10T01:35:02;14.30;99.90
7588;DHT22;3835;48.850;8.938;2023-06-10T01:37:31;14.30;99.90
7588;DHT22;3835;48.850;8.938;2023-06-10T01:39:59;14.30;99.90
7588;DHT22;3835;48.850;8.938;2023-06-10T01:42:27;14.00;99.90
7588;DHT22;3835;48.850;8.938;2023-06-10T01:44:54;14.00;99.90
7588;DHT22;3835;48.850;8.938;2023-06-10T01:47:21;14.10;99.90
7588;DHT22;3835;48.850;8.938;2023-06-10T01:49:48;14.10;99.90
7588;DHT22;3835;48.850;8.938;2023-06-10T01:52:15;14.10;99.90
7588;DHT22;3835;48.850;8.938;2023-06-10T01:54:43;14.10;99.90
7588;DHT22;3835;48.850;8.938;2023-06-10T01:57:10;14.00;99.90
7588;DHT22;3835;48.850;8.938;2023-06-10T01:59:36;14.00;99.90
7588;DHT22;3835;48.850;8.938;2023-06-10T02:02:04;14.00;99.90
7588;DHT22;3835;48.850;8.938;2023-06-10T02:04:30;14.10;99.90
7588;DHT22;3835;48.850;8.938;2023-06-10T02:06:57;14.00;99.90
7588;DHT22;3835;48.850;8.938;2023-06-10T02:09:24;14.00;99.90
7588;DHT22;3835;48.850;8.938;2023-06-10T02:11:52;14.00;99.90
7588;DHT22;3835;48.850;8.938;2023-06-10T02:14:19;13.90;99.90
7588;DHT22;3835;48.850;8.938;2023-06-10T02:16:46;13.90;99.90
7588;DHT22;3835;48.850;8.938;2023-06-10T02:19:13;13.80;99.90
7588;DHT22;3835;48.850;8.938;2023-06-10T02:21:40;13.70;99.90
7588;DHT22;3835;48.850;8.938;2023-06-10T02:24:07;13.70;99.90
7588;DHT22;3835;48.850;8.938;2023-06-10T02:26:34;13.60;99.90
7588;DHT22;3835;48.850;8.938;2023-06-10T02:29:02;13.60;99.90
7588;DHT22;3835;48.850;8.938;2023-06-10T02:31:29;13.60;99.90
7588;DHT22;3835;48.850;8.938;2023-06-10T02:33:55;13.50;99.90
7588;DHT22;3835;48.850;8.938;2023-06-10T02:36:22;13.60;99.90
7588;DHT22;3835;48.850;8.938;2023-06-10T02:38:49;13.60;99.90
7588;DHT22;3835;48.850;8.938;2023-06-10T02:41:16;13.50;99.90
7588;DHT22;3835;48.850;8.938;2023-06-10T02:43:43;13.50;99.90
7588;DHT22;3835;48.850;8.938;2023-06-10T02:46:11;13.40;99.90
7588;DHT22;3835;48.850;8.938;2023-06-10T02:48:41;13.30;99.90
7588;DHT22;3835;48.850;8.938;2023-06-10T02:51:09;13.20;99.90
7588;DHT22;3835;48.850;8.938;2023-06-10T02:53:36;13.20;99.90
7588;DHT22;3835;48.850;8.938;2023-06-10T02:56:03;13.10;99.90
7588;DHT22;3835;48.850;8.938;2023-06-10T02:58:29;13.10;99.90
7588;DHT22;3835;48.850;8.938;2023-06-10T03:00:56;13.20;99.90
7588;DHT22;3835;48.850;8.938;2023-06-10T03:03:25;13.50;99.90
7588;DHT22;3835;48.850;8.938;2023-06-10T03:05:53;13.40;99.90
7588;DHT22;3835;48.850;8.938;2023-06-10T03:08:19;13.30;99.90
7588;DHT22;3835;48.850;8.938;2023-06-10T03:10:46;13.30;99.90
7588;DHT22;3835;48.850;8.938;2023-06-10T03:13:13;13.20;99.90
7588;DHT22;3835;48.850;8.938;2023-06-10T03:15:41;13.20;99.90
7588;DHT22;3835;48.850;8.938;2023-06-10T03:18:07;13.10;99.90
7588;DHT22;3835;48.850;8.938;2023-06-10T03:20:35;13.30;99.90
7588;DHT22;3835;48.850;8.938;2023-06-10T03:23:03;13.40;99.90
7588;DHT22;3835;48.850;8.938;2023-06-10T03:25:30;13.40;99.90
7588;DHT22;3835;48.850;8.938;2023-06-10T03:27:57;13.40;99.90
7588;DHT22;3835;48.850;8.938;2023-06-10T03:30:24;13.40;99.90
7588;DHT22;3835;48.850;8.938;2023-06-10T03:32:50;13.40;99.90
7588;DHT22;3835;48.850;8.938;2023-06-10T03:35:17;13.50;99.90
7588;DHT22;3835;48.850;8.938;2023-06-10T03:37:45;13.60;99.90
7588;DHT22;3835;48.850;8.938;2023-06-10T03:40:12;13.80;99.90
7588;DHT22;3835;48.850;8.938;2023-06-10T03:42:39;13.80;99.90
7588;DHT22;3835;48.850;8.938;2023-06-10T03:45:06;14.00;99.90
7588;DHT22;3835;48.850;8.938;2023-06-10T03:47:34;14.10;99.90
7588;DHT22;3835;48.850;8.938;2023-06-10T03:50:02;14.30;99.90
7588;DHT22;3835;48.850;8.938;2023-06-10T03:52:29;14.30;99.90
7588;DHT22;3835;48.850;8.938;2023-06-10T03:54:57;14.40;99.90
7588;DHT22;3835;48.850;8.938;2023-06-10T03:57:24;14.50;99.90
7588;DHT22;3835;48.850;8.938;2023-06-10T03:59:51;14.50;99.90
7588;DHT22;3835;48.850;8.938;2023-06-10T04:02:18;14.50;99.90
7588;DHT22;3835;48.850;8.938;2023-06-10T04:04:44;14.60;99.90
7588;DHT22;3835;48.850;8.938;2023-06-10T04:07:11;14.70;99.90
7588;DHT22;3835;48.850;8.938;2023-06-10T04:09:39;14.90;99.90
7588;DHT22;3835;48.850;8.938;2023-06-10T04:12:08;15.00;99.90
7588;DHT22;3835;48.850;8.938;2023-06-10T04:14:35;15.10;99.90
7588;DHT22;3835;48.850;8.938;2023-06-10T04:17:04;15.20;99.90
7588;DHT22;3835;48.850;8.938;2023-06-10T04:19:32;15.40;99.90
7588;DHT22;3835;48.850;8.938;2023-06-10T04:22:00;15.50;99.90
7588;DHT22;3835;48.850;8.938;2023-06-10T04:24:27;15.50;99.90
7588;DHT22;3835;48.850;8.938;2023-06-10T04:26:54;15.50;99.90
7588;DHT22;3835;48.850;8.938;2023-06-10T04:29:22;15.50;99.90
7588;DHT22;3835;48.850;8.938;2023-06-10T04:31:49;15.70;99.90
7588;DHT22;3835;48.850;8.938;2023-06-10T04:34:16;15.80;99.90
7588;DHT22;3835;48.850;8.938;2023-06-10T04:36:43;16.00;99.90
7588;DHT22;3835;48.850;8.938;2023-06-10T04:39:09;16.00;99.90
7588;DHT22;3835;48.850;8.938;2023-06-10T04:41:36;16.20;99.90
7588;DHT22;3835;48.850;8.938;2023-06-10T04:44:03;16.20;99.90
7588;DHT22;3835;48.850;8.938;2023-06-10T04:46:31;16.40;99.90
7588;DHT22;3835;48.850;8.938;2023-06-10T04:48:58;16.50;99.90
7588;DHT22;3835;48.850;8.938;2023-06-10T04:51:25;16.50;99.90
7588;DHT22;3835;48.850;8.938;2023-06-10T04:53:52;16.70;99.90
7588;DHT22;3835;48.850;8.938;2023-06-10T04:56:19;16.80;99.90
7588;DHT22;3835;48.850;8.938;2023-06-10T04:58:46;16.90;99.90
7588;DHT22;3835;48.850;8.938;2023-06-10T05:01:12;17.10;99.90
7588;DHT22;3835;48.850;8.938;2023-06-10T05:03:40;17.20;99.90
7588;DHT22;3835;48.850;8.938;2023-06-10T05:06:07;17.40;99.90
7588;DHT22;3835;48.850;8.938;2023-06-10T05:08:34;17.40;99.90
7588;DHT22;3835;48.850;8.938;2023-06-10T05:11:01;17.50;99.90
7588;DHT22;3835;48.850;8.938;2023-06-10T05:13:27;17.60;99.90
7588;DHT22;3835;48.850;8.938;2023-06-10T05:15:55;17.70;99.90
7588;DHT22;3835;48.850;8.938;2023-06-10T05:18:21;17.80;99.90
7588;DHT22;3835;48.850;8.938;2023-06-10T05:20:50;18.20;99.90
7588;DHT22;3835;48.850;8.938;2023-06-10T05:23:17;18.80;99.90
7588;DHT22;3835;48.850;8.938;2023-06-10T05:25:43;19.20;99.90
7588;DHT22;3835;48.850;8.938;2023-06-10T05:28:10;19.60;99.90
7588;DHT22;3835;48.850;8.938;2023-06-10T05:30:37;21.30;99.90
7588;DHT22;3835;48.850;8.938;2023-06-10T05:33:04;23.30;99.90
7588;DHT22;3835;48.850;8.938;2023-06-10T05:35:31;24.70;99.90
7588;DHT22;3835;48.850;8.938;2023-06-10T05:37:59;25.60;99.90
7588;DHT22;3835;48.850;8.938;2023-06-10T05:40:26;26.00;99.90
7588;DHT22;3835;48.850;8.938;2023-06-10T05:42:52;26.60;99.90
7588;DHT22;3835;48.850;8.938;2023-06-10T05:45:19;27.10;99.90
7588;DHT22;3835;48.850;8.938;2023-06-10T05:47:46;26.20;99.80
7588;DHT22;3835;48.850;8.938;2023-06-10T05:50:13;25.40;99.60
7588;DHT22;3835;48.850;8.938;2023-06-10T05:52:39;24.10;99.90
7588;DHT22;3835;48.850;8.938;2023-06-10T05:55:09;23.10;99.90
7588;DHT22;3835;48.850;8.938;2023-06-10T05:57:36;22.50;99.90
7588;DHT22;3835;48.850;8.938;2023-06-10T06:00:03;21.80;99.90
7588;DHT22;3835;48.850;8.938;2023-06-10T06:02:30;20.90;99.90
7588;DHT22;3835;48.850;8.938;2023-06-10T06:04:57;20.50;99.90
7588;DHT22;3835;48.850;8.938;2023-06-10T06:07:24;19.90;99.90
7588;DHT22;3835;48.850;8.938;2023-06-10T06:09:51;19.60;99.90
7588;DHT22;3835;48.850;8.938;2023-06-10T06:12:19;19.40;99.90
7588;DHT22;3835;48.850;8.938;2023-06-10T06:14:45;19.40;99.90
7588;DHT22;3835;48.850;8.938;2023-06-10T06:17:14;19.40;99.90
7588;DHT22;3835;48.850;8.938;2023-06-10T06:19:41;19.40;99.90
7588;DHT22;3835;48.850;8.938;2023-06-10T06:22:08;19.40;99.90
7588;DHT22;3835;48.850;8.938;2023-06-10T06:24:35;19.50;99.90
7588;DHT22;3835;48.850;8.938;2023-06-10T06:27:02;19.60;99.90
7588;DHT22;3835;48.850;8.938;2023-06-10T06:29:30;19.80;99.90
7588;DHT22;3835;48.850;8.938;2023-06-10T06:31:57;20.00;99.90
7588;DHT22;3835;48.850;8.938;2023-06-10T06:34:24;20.30;99.90
7588;DHT22;3835;48.850;8.938;2023-06-10T06:36:51;20.30;99.90
7588;DHT22;3835;48.850;8.938;2023-06-10T06:39:18;20.40;99.90
7588;DHT22;3835;48.850;8.938;2023-06-10T06:41:45;20.40;99.90
7588;DHT22;3835;48.850;8.938;2023-06-10T06:44:12;20.50;99.90
7588;DHT22;3835;48.850;8.938;2023-06-10T06:46:40;20.60;99.90
7588;DHT22;3835;48.850;8.938;2023-06-10T06:49:06;20.70;99.90
7588;DHT22;3835;48.850;8.938;2023-06-10T06:51:33;20.90;99.90
7588;DHT22;3835;48.850;8.938;2023-06-10T06:54:00;21.10;99.90
7588;DHT22;3835;48.850;8.938;2023-06-10T06:56:27;21.30;99.90
7588;DHT22;3835;48.850;8.938;2023-06-10T06:58:54;21.30;99.90
7588;DHT22;3835;48.850;8.938;2023-06-10T07:01:21;21.50;99.90
7588;DHT22;3835;48.850;8.938;2023-06-10T07:03:49;21.60;99.90
7588;DHT22;3835;48.850;8.938;2023-06-10T07:06:16;21.60;99.90
7588;DHT22;3835;48.850;8.938;2023-06-10T07:08:42;21.80;99.90
7588;DHT22;3835;48.850;8.938;2023-06-10T07:11:09;21.90;99.90
7588;DHT22;3835;48.850;8.938;2023-06-10T07:13:36;21.90;99.90
7588;DHT22;3835;48.850;8.938;2023-06-10T07:16:03;21.90;99.90
7588;DHT22;3835;48.850;8.938;2023-06-10T07:18:30;22.00;99.90
7588;DHT22;3835;48.850;8.938;2023-06-10T07:20:58;22.10;99.90
7588;DHT22;3835;48.850;8.938;2023-06-10T07:23:25;22.00;99.90
7588;DHT22;3835;48.850;8.938;2023-06-10T07:25:51;22.20;99.90
7588;DHT22;3835;48.850;8.938;2023-06-10T07:28:18;22.30;99.90
7588;DHT22;3835;48.850;8.938;2023-06-10T07:30:45;22.40;99.90
7588;DHT22;3835;48.850;8.938;2023-06-10T07:33:12;22.30;99.90
7588;DHT22;3835;48.850;8.938;2023-06-10T07:35:38;22.10;99.90
7588;DHT22;3835;48.850;8.938;2023-06-10T07:38:07;22.00;99.90
7588;DHT22;3835;48.850;8.938;2023-06-10T07:40:33;22.00;99.90
7588;DHT22;3835;48.850;8.938;2023-06-10T07:43:00;22.10;99.90
7588;DHT22;3835;48.850;8.938;2023-06-10T07:45:27;22.30;99.90
7588;DHT22;3835;48.850;8.938;2023-06-10T07:47:54;22.50;99.90
7588;DHT22;3835;48.850;8.938;2023-06-10T07:50:21;22.30;99.90
7588;DHT22;3835;48.850;8.938;2023-06-10T07:52:48;22.30;99.90
7588;DHT22;3835;48.850;8.938;2023-06-10T07:55:16;22.70;99.90
7588;DHT22;3835;48.850;8.938;2023-06-10T07:57:42;22.90;99.90
7588;DHT22;3835;48.850;8.938;2023-06-10T08:00:10;22.80;99.90
7588;DHT22;3835;48.850;8.938;2023-06-10T08:02:37;22.60;99.90
7588;DHT22;3835;48.850;8.938;2023-06-10T08:05:04;22.70;99.90
7588;DHT22;3835;48.850;8.938;2023-06-10T08:07:31;23.00;99.90
7588;DHT22;3835;48.850;8.938;2023-06-10T08:09:58;22.80;99.90
7588;DHT22;3835;48.850;8.938;2023-06-10T08:12:26;23.00;99.90
7588;DHT22;3835;48.850;8.938;2023-06-10T08:14:53;23.30;99.90
7588;DHT22;3835;48.850;8.938;2023-06-10T08:17:20;23.70;99.90
7588;DHT22;3835;48.850;8.938;2023-06-10T08:19:47;23.70;99.90
7588;DHT22;3835;48.850;8.938;2023-06-10T08:22:14;23.40;99.90
7588;DHT22;3835;48.850;8.938;2023-06-10T08:24:41;23.30;99.90
7588;DHT22;3835;48.850;8.938;2023-06-10T08:27:08;23.50;99.90
7588;DHT22;3835;48.850;8.938;2023-06-10T08:29:37;23.30;99.90
7588;DHT22;3835;48.850;8.938;2023-06-10T08:32:04;23.50;99.90
7588;DHT22;3835;48.850;8.938;2023-06-10T08:34:34;23.70;99.90
7588;DHT22;3835;48.850;8.938;2023-06-10T08:37:01;23.60;99.90
7588;DHT22;3835;48.850;8.938;2023-06-10T08:39:27;23.70;99.90
7588;DHT22;3835;48.850;8.938;2023-06-10T08:42:04;23.80;99.90
7588;DHT22;3835;48.850;8.938;2023-06-10T08:44:33;23.90;99.90
7588;DHT22;3835;48.850;8.938;2023-06-10T08:47:08;24.20;99.90
7588;DHT22;3835;48.850;8.938;2023-06-10T08:49:40;24.00;99.90
7588;DHT22;3835;48.850;8.938;2023-06-10T08:52:08;23.90;99.90
7588;DHT22;3835;48.850;8.938;2023-06-10T08:54:38;23.70;99.90
7588;DHT22;3835;48.850;8.938;2023-06-10T08:57:07;23.80;99.90
7588;DHT22;3835;48.850;8.938;2023-06-10T08:59:36;23.90;99.90
7588;DHT22;3835;48.850;8.938;2023-06-10T09:02:05;23.90;99.90
7588;DHT22;3835;48.850;8.938;2023-06-10T09:04:34;24.00;99.90
7588;DHT22;3835;48.850;8.938;2023-06-10T09:07:02;24.00;99.90
7588;DHT22;3835;48.850;8.938;2023-06-10T09:09:29;24.20;99.90
7588;DHT22;3835;48.850;8.938;2023-06-10T09:11:56;24.20;99.90
7588;DHT22;3835;48.850;8.938;2023-06-10T09:14:23;24.30;99.90
7588;DHT22;3835;48.850;8.938;2023-06-10T09:16:50;24.20;99.90
7588;DHT22;3835;48.850;8.938;2023-06-10T09:19:18;24.10;99.90
7588;DHT22;3835;48.850;8.938;2023-06-10T09:21:46;24.10;99.90
7588;DHT22;3835;48.850;8.938;2023-06-10T09:24:13;24.20;99.90
7588;DHT22;3835;48.850;8.938;2023-06-10T09:26:41;24.50;99.90
7588;DHT22;3835;48.850;8.938;2023-06-10T09:29:09;24.50;99.90
7588;DHT22;3835;48.850;8.938;2023-06-10T09:31:38;24.70;99.90
7588;DHT22;3835;48.850;8.938;2023-06-10T09:34:07;24.60;99.90
7588;DHT22;3835;48.850;8.938;2023-06-10T09:36:37;24.50;99.90
7588;DHT22;3835;48.850;8.938;2023-06-10T09:39:04;24.50;99.90
7588;DHT22;3835;48.850;8.938;2023-06-10T09:41:34;24.40;99.90
7588;DHT22;3835;48.850;8.938;2023-06-10T09:44:02;24.60;99.90
7588;DHT22;3835;48.850;8.938;2023-06-10T09:46:35;24.70;99.90
7588;DHT22;3835;48.850;8.938;2023-06-10T09:49:02;24.90;99.90
7588;DHT22;3835;48.850;8.938;2023-06-10T09:51:29;24.80;99.90
7588;DHT22;3835;48.850;8.938;2023-06-10T09:53:57;25.10;99.90
7588;DHT22;3835;48.850;8.938;2023-06-10T09:56:33;25.00;99.90
7588;DHT22;3835;48.850;8.938;2023-06-10T09:59:01;25.20;99.90
7588;DHT22;3835;48.850;8.938;2023-06-10T10:01:27;25.30;99.90
7588;DHT22;3835;48.850;8.938;2023-06-10T10:03:54;25.10;99.90
7588;DHT22;3835;48.850;8.938;2023-06-10T10:06:21;25.30;99.90
7588;DHT22;3835;48.850;8.938;2023-06-10T10:08:49;25.40;99.90
7588;DHT22;3835;48.850;8.938;2023-06-10T10:11:19;25.50;99.90
7588;DHT22;3835;48.850;8.938;2023-06-10T10:13:48;25.20;99.90
7588;DHT22;3835;48.850;8.938;2023-06-10T10:16:17;25.20;99.90
7588;DHT22;3835;48.850;8.938;2023-06-10T10:18:47;25.50;99.90
7588;DHT22;3835;48.850;8.938;2023-06-10T10:21:16;25.70;99.90
7588;DHT22;3835;48.850;8.938;2023-06-10T10:23:52;25.70;99.90
7588;DHT22;3835;48.850;8.938;2023-06-10T10:26:21;25.50;99.90
7588;DHT22;3835;48.850;8.938;2023-06-10T10:28:58;25.40;99.90
7588;DHT22;3835;48.850;8.938;2023-06-10T10:31:29;25.50;99.90
7588;DHT22;3835;48.850;8.938;2023-06-10T10:34:00;25.40;99.10
7588;DHT22;3835;48.850;8.938;2023-06-10T10:36:27;25.30;99.30
7588;DHT22;3835;48.850;8.938;2023-06-10T10:38:54;25.50;99.90
7588;DHT22;3835;48.850;8.938;2023-06-10T10:41:24;25.60;99.90
7588;DHT22;3835;48.850;8.938;2023-06-10T10:43:53;25.70;98.90
7588;DHT22;3835;48.850;8.938;2023-06-10T10:46:20;25.80;99.50
7588;DHT22;3835;48.850;8.938;2023-06-10T10:48:52;25.70;98.80
7588;DHT22;3835;48.850;8.938;2023-06-10T10:51:19;25.90;99.10
7588;DHT22;3835;48.850;8.938;2023-06-10T10:54:11;26.10;99.40
7588;DHT22;3835;48.850;8.938;2023-06-10T10:56:40;25.90;97.30
7588;DHT22;3835;48.850;8.938;2023-06-10T10:59:50;26.20;98.60
7588;DHT22;3835;48.850;8.938;2023-06-10T11:02:18;26.20;97.30
7588;DHT22;3835;48.850;8.938;2023-06-10T11:04:46;25.80;97.40
7588;DHT22;3835;48.850;8.938;2023-06-10T11:07:14;25.40;97.70
7588;DHT22;3835;48.850;8.938;2023-06-10T11:10:00;25.50;97.50
7588;DHT22;3835;48.850;8.938;2023-06-10T11:12:49;26.10;97.20
7588;DHT22;3835;48.850;8.938;2023-06-10T11:15:23;26.40;97.80
7588;DHT22;3835;48.850;8.938;2023-06-10T11:18:10;26.20;96.60
7588;DHT22;3835;48.850;8.938;2023-06-10T11:20:58;25.70;96.00
7588;DHT22;3835;48.850;8.938;2023-06-10T11:23:39;25.90;96.10
7588;DHT22;3835;48.850;8.938;2023-06-10T11:26:17;25.90;96.40
7588;DHT22;3835;48.850;8.938;2023-06-10T11:29:06;25.80;96.90
7588;DHT22;3835;48.850;8.938;2023-06-10T11:31:42;25.60;97.20
7588;DHT22;3835;48.850;8.938;2023-06-10T11:34:10;25.80;97.70
7588;DHT22;3835;48.850;8.938;2023-06-10T11:36:38;26.00;97.60
7588;DHT22;3835;48.850;8.938;2023-06-10T11:39:08;26.30;96.90
7588;DHT22;3835;48.850;8.938;2023-06-10T11:41:37;26.30;96.00
7588;DHT22;3835;48.850;8.938;2023-06-10T11:44:08;26.60;96.40
7588;DHT22;3835;48.850;8.938;2023-06-10T11:46:35;27.00;95.50
7588;DHT22;3835;48.850;8.938;2023-06-10T11:49:03;26.90;94.40
7588;DHT22;3835;48.850;8.938;2023-06-10T11:51:33;26.60;94.70
7588;DHT22;3835;48.850;8.938;2023-06-10T11:54:00;26.90;95.90
7588;DHT22;3835;48.850;8.938;2023-06-10T11:56:28;26.80;95.90
7588;DHT22;3835;48.850;8.938;2023-06-10T11:58:56;26.30;96.10
7588;DHT22;3835;48.850;8.938;2023-06-10T12:01:26;25.80;96.50
7588;DHT22;3835;48.850;8.938;2023-06-10T12:03:57;25.80;96.60
7588;DHT22;3835;48.850;8.938;2023-06-10T12:06:24;26.00;97.20
7588;DHT22;3835;48.850;8.938;2023-06-10T12:08:51;26.20;96.80
7588;DHT22;3835;48.850;8.938;2023-06-10T12:11:18;26.40;96.80
7588;DHT22;3835;48.850;8.938;2023-06-10T12:13:46;26.60;97.00
7588;DHT22;3835;48.850;8.938;2023-06-10T12:16:15;26.70;95.00
7588;DHT22;3835;48.850;8.938;2023-06-10T12:18:44;26.90;95.60
7588;DHT22;3835;48.850;8.938;2023-06-10T12:21:19;27.00;95.80
7588;DHT22;3835;48.850;8.938;2023-06-10T12:24:04;27.20;94.60
7588;DHT22;3835;48.850;8.938;2023-06-10T12:26:41;27.30;94.10
7588;DHT22;3835;48.850;8.938;2023-06-10T12:29:20;27.10;94.50
7588;DHT22;3835;48.850;8.938;2023-06-10T12:32:00;27.20;92.20
7588;DHT22;3835;48.850;8.938;2023-06-10T12:34:35;27.00;92.60
7588;DHT22;3835;48.850;8.938;2023-06-10T12:37:04;27.00;93.40
7588;DHT22;3835;48.850;8.938;2023-06-10T12:39:32;27.10;93.50
7588;DHT22;3835;48.850;8.938;2023-06-10T12:41:59;27.60;93.10
7588;DHT22;3835;48.850;8.938;2023-06-10T12:44:34;27.70;93.80
7588;DHT22;3835;48.850;8.938;2023-06-10T12:47:07;27.80;91.40
7588;DHT22;3835;48.850;8.938;2023-06-10T12:49:36;28.10;92.70
7588;DHT22;3835;48.850;8.938;2023-06-10T12:52:04;28.20;91.90
7588;DHT22;3835;48.850;8.938;2023-06-10T12:54:31;28.10;93.00
7588;DHT22;3835;48.850;8.938;2023-06-10T12:56:58;28.00;93.00
7588;DHT22;3835;48.850;8.938;2023-06-10T12:59:25;27.90;92.20
7588;DHT22;3835;48.850;8.938;2023-06-10T13:01:52;28.10;93.20
7588;DHT22;3835;48.850;8.938;2023-06-10T13:04:20;27.90;93.80
7588;DHT22;3835;48.850;8.938;2023-06-10T13:06:48;27.90;91.80
7588;DHT22;3835;48.850;8.938;2023-06-10T13:09:15;27.60;91.70
7588;DHT22;3835;48.850;8.938;2023-06-10T13:11:42;27.70;92.40
7588;DHT22;3835;48.850;8.938;2023-06-10T13:14:10;27.40;90.70
7588;DHT22;3835;48.850;8.938;2023-06-10T13:16:37;26.90;91.20
7588;DHT22;3835;48.850;8.938;2023-06-10T13:19:05;26.70;91.50
7588;DHT22;3835;48.850;8.938;2023-06-10T13:21:32;26.70;91.20
7588;DHT22;3835;48.850;8.938;2023-06-10T13:24:00;26.60;92.70
7588;DHT22;3835;48.850;8.938;2023-06-10T13:26:27;26.30;91.60
7588;DHT22;3835;48.850;8.938;2023-06-10T13:28:54;26.40;92.10
7588;DHT22;3835;48.850;8.938;2023-06-10T13:31:21;26.70;92.10
7588;DHT22;3835;48.850;8.938;2023-06-10T13:33:48;26.80;92.60
7588;DHT22;3835;48.850;8.938;2023-06-10T13:36:15;26.40;92.40
7588;DHT22;3835;48.850;8.938;2023-06-10T13:38:41;26.00;91.50
7588;DHT22;3835;48.850;8.938;2023-06-10T13:41:09;25.80;92.10
7588;DHT22;3835;48.850;8.938;2023-06-10T13:43:37;25.70;91.60
7588;DHT22;3835;48.850;8.938;2023-06-10T13:46:04;26.00;92.80
7588;DHT22;3835;48.850;8.938;2023-06-10T13:48:31;26.40;91.80
7588;DHT22;3835;48.850;8.938;2023-06-10T13:50:58;27.00;91.20
7588;DHT22;3835;48.850;8.938;2023-06-10T13:53:25;27.50;91.10
7588;DHT22;3835;48.850;8.938;2023-06-10T13:55:52;27.80;90.30
7588;DHT22;3835;48.850;8.938;2023-06-10T13:58:20;28.00;90.70
7588;DHT22;3835;48.850;8.938;2023-06-10T14:00:47;27.90;87.20
7588;DHT22;3835;48.850;8.938;2023-06-10T14:03:14;27.30;89.30
7588;DHT22;3835;48.850;8.938;2023-06-10T14:05:40;27.30;90.30
7588;DHT22;3835;48.850;8.938;2023-06-10T14:08:08;27.30;90.90
7588;DHT22;3835;48.850;8.938;2023-06-10T14:10:35;27.10;90.00
7588;DHT22;3835;48.850;8.938;2023-06-10T14:13:02;26.90;90.70
7588;DHT22;3835;48.850;8.938;2023-06-10T14:15:30;27.00;91.10
7588;DHT22;3835;48.850;8.938;2023-06-10T14:17:57;27.10;91.40
7588;DHT22;3835;48.850;8.938;2023-06-10T14:20:24;27.10;91.50
7588;DHT22;3835;48.850;8.938;2023-06-10T14:22:55;27.10;91.30
7588;DHT22;3835;48.850;8.938;2023-06-10T14:25:22;27.20;91.20
7588;DHT22;3835;48.850;8.938;2023-06-10T14:27:49;27.20;90.20
7588;DHT22;3835;48.850;8.938;2023-06-10T14:30:16;27.40;90.20
7588;DHT22;3835;48.850;8.938;2023-06-10T14:32:44;27.30;89.10
7588;DHT22;3835;48.850;8.938;2023-06-10T14:35:11;27.20;87.90
7588;DHT22;3835;48.850;8.938;2023-06-10T14:37:37;27.20;89.20
7588;DHT22;3835;48.850;8.938;2023-06-10T14:40:05;27.30;87.80
7588;DHT22;3835;48.850;8.938;2023-06-10T14:42:32;27.40;87.60
7588;DHT22;3835;48.850;8.938;2023-06-10T14:44:59;27.60;88.40
7588;DHT22;3835;48.850;8.938;2023-06-10T14:47:25;27.50;89.40
7588;DHT22;3835;48.850;8.938;2023-06-10T14:49:53;27.40;87.90
7588;DHT22;3835;48.850;8.938;2023-06-10T14:52:20;27.30;89.00
7588;DHT22;3835;48.850;8.938;2023-06-10T14:54:47;27.30;89.60
7588;DHT22;3835;48.850;8.938;2023-06-10T14:57:14;27.10;87.30
7588;DHT22;3835;48.850;8.938;2023-06-10T14:59:41;27.00;88.80
7588;DHT22;3835;48.850;8.938;2023-06-10T15:02:07;26.90;88.00
7588;DHT22;3835;48.850;8.938;2023-06-10T15:04:34;26.90;88.70
7588;DHT22;3835;48.850;8.938;2023-06-10T15:07:03;27.00;90.00
7588;DHT22;3835;48.850;8.938;2023-06-10T15:09:30;27.00;88.30
7588;DHT22;3835;48.850;8.938;2023-06-10T15:11:57;27.20;88.70
7588;DHT22;3835;48.850;8.938;2023-06-10T15:14:24;27.20;89.30
7588;DHT22;3835;48.850;8.938;2023-06-10T15:16:52;27.20;87.80
7588;DHT22;3835;48.850;8.938;2023-06-10T15:19:18;27.30;89.20
7588;DHT22;3835;48.850;8.938;2023-06-10T15:21:45;27.30;85.50
7588;DHT22;3835;48.850;8.938;2023-06-10T15:24:13;27.40;88.20
7588;DHT22;3835;48.850;8.938;2023-06-10T15:26:40;27.30;86.50
7588;DHT22;3835;48.850;8.938;2023-06-10T15:29:07;27.50;87.80
7588;DHT22;3835;48.850;8.938;2023-06-10T15:31:34;27.60;88.50
7588;DHT22;3835;48.850;8.938;2023-06-10T15:34:01;27.60;87.90
7588;DHT22;3835;48.850;8.938;2023-06-10T15:36:29;27.40;87.10
7588;DHT22;3835;48.850;8.938;2023-06-10T15:39:01;27.40;88.60
7588;DHT22;3835;48.850;8.938;2023-06-10T15:41:29;27.40;88.20
7588;DHT22;3835;48.850;8.938;2023-06-10T15:43:56;27.50;87.90
7588;DHT22;3835;48.850;8.938;2023-06-10T15:46:25;27.50;88.50
7588;DHT22;3835;48.850;8.938;2023-06-10T15:48:51;27.60;88.10
7588;DHT22;3835;48.850;8.938;2023-06-10T15:51:18;27.60;86.90
7588;DHT22;3835;48.850;8.938;2023-06-10T15:53:45;27.50;87.40
7588;DHT22;3835;48.850;8.938;2023-06-10T15:56:12;27.40;86.80
7588;DHT22;3835;48.850;8.938;2023-06-10T15:58:40;27.10;86.40
7588;DHT22;3835;48.850;8.938;2023-06-10T16:01:07;27.10;87.70
7588;DHT22;3835;48.850;8.938;2023-06-10T16:03:34;27.30;89.40
7588;DHT22;3835;48.850;8.938;2023-06-10T16:06:02;27.30;86.70
7588;DHT22;3835;48.850;8.938;2023-06-10T16:08:29;27.20;89.30